Copper Mountain, CO

9:18 AM MST on January 17, 2018 (GMT -0700)
Copper Mountain

Weather History for KCCU - April, 2014

Change the Weather History Date:

Wednesday, April 16, 2014

  Actual Average Record
Temperature  
Mean Temperature 26 °F -  
Max Temperature 33 °F - 45 °F (2017)
Min Temperature 19 °F - 14 °F (2003)
Degree Days  
Heating Degree Days 39    
Month to date heating degree days  
Cooling Degree Days 0    
Month to date cooling degree days  
Moisture  
Dew Point 11 °F    
Average Humidity 54    
Maximum Humidity 80    
Minimum Humidity 30    
Precipitation  
Precipitation 0.00 in - 0.45 in (2003)
Sea Level Pressure  
Sea Level Pressure 30.00 in    
Wind  
Wind Speed 24 mph (West)    
Max Wind Speed 43 mph    
Max Gust Speed 61 mph    
Visibility 6 miles    
Events Snow    
T = Trace of Precipitation, MM = Missing Value Source: NWS Daily Summary

Daily Weather History Graph

Daily Weather History Graph

Search for Another Location

Airport or City:

Trip Planner

Search our weather history database for the weather conditions in past years. The results will help you decide how hot, cold, wet, or windy it might be!

Date:

Astronomy

Apr. 16, 2014 Rise Set
Actual Time 6:25 AM MDT 7:43 PM MDT
Civil Twilight 5:58 AM MDT 8:11 PM MDT
Nautical Twilight 5:24 AM MDT 8:44 PM MDT
Astronomical Twilight 4:49 AM MDT 9:20 PM MDT
Moon 9:29 PM MDT (4/16) 7:15 AM MDT (4/16)
Length of Visible Light 14h 13m
Length of Day
13h 17m
Full, 98% of the Moon is Illuminated
Apr 16
Full
Apr 22
Last Quarter
Apr 29
New
May 6
First Quarter
May 14
Full

Hourly Weather History & Observations

Time (MDT) Temp. Windchill Dew Point Humidity Pressure Visibility Wind Dir Wind Speed Gust Speed Precip Events Conditions
12:16 AM 28.4 °F 11.4 °F 10.4 °F 47% 29.92 in 0.2 mi WSW 36.8 mph 46.0 mph N/A Snow Snow
12:36 AM 30.2 °F 14.3 °F 12.2 °F 47% 29.91 in 0.2 mi WSW 34.5 mph 57.5 mph N/A Snow Snow
12:56 AM 30.2 °F 13.9 °F 12.2 °F 47% 29.91 in 0.5 mi WSW 36.8 mph 43.7 mph N/A Snow Light Snow
1:16 AM 30.2 °F 15.7 °F 10.4 °F 44% 29.92 in 0.5 mi WSW 27.6 mph 43.7 mph N/A Snow Light Snow
1:36 AM 30.2 °F 14.9 °F 10.4 °F 44% 29.91 in 0.5 mi WSW 31.1 mph 44.9 mph N/A Snow Light Snow
1:56 AM 30.2 °F 14.5 °F 12.2 °F 47% 29.91 in 0.2 mi WSW 33.4 mph 50.6 mph N/A Snow Light Snow
2:16 AM 30.2 °F 15.4 °F 10.4 °F 44% 29.90 in 0.5 mi West 28.8 mph 46.0 mph N/A Snow Light Snow
2:36 AM 28.4 °F 10.8 °F 12.2 °F 51% 29.88 in 0.5 mi WSW 40.3 mph 61.0 mph N/A Snow Light Snow
2:56 AM 28.4 °F 11.8 °F 14.0 °F 55% 29.90 in 0.2 mi West 34.5 mph 55.2 mph N/A Snow Snow
3:16 AM 28.4 °F 13.8 °F 14.0 °F 55% 29.91 in 1.5 mi West 25.3 mph 44.9 mph N/A Snow Light Snow
3:36 AM 26.6 °F 7.9 °F 15.8 °F 64% 29.88 in 0.2 mi West 42.6 mph 52.9 mph N/A Snow Light Snow
3:56 AM 24.8 °F 7.3 °F 19.4 °F 80% 29.90 in 0.2 mi West 32.2 mph 39.1 mph N/A Snow Heavy Snow
4:16 AM 24.8 °F 7.6 °F 19.4 °F 80% 29.90 in 0.2 mi West 31.1 mph 35.7 mph N/A Snow Heavy Snow
4:36 AM 24.8 °F 8.7 °F 19.4 °F 80% 29.91 in 0.2 mi West 26.5 mph 33.4 mph N/A Snow Snow
4:56 AM 24.8 °F 8.1 °F 19.4 °F 80% 29.90 in 0.2 mi West 28.8 mph 36.8 mph N/A Snow Snow
5:16 AM 24.8 °F 8.7 °F 19.4 °F 80% 29.91 in 0.2 mi West 26.5 mph 34.5 mph N/A Snow Snow
5:36 AM 24.8 °F 9.0 °F 19.4 °F 80% 29.91 in 0.5 mi West 25.3 mph 32.2 mph N/A Snow Snow
5:56 AM 24.8 °F 11.5 °F 19.4 °F 80% 29.93 in 0.5 mi West 17.3 mph 29.9 mph N/A Snow Light Snow
6:16 AM 23.0 °F - 17.6 °F 80% 29.94 in 0.2 mi North - - N/A Snow Heavy Snow
6:36 AM 21.2 °F - 14.0 °F 74% 29.95 in 0.2 mi North - - N/A Snow Snow
6:56 AM 19.4 °F 3.2 °F 14.0 °F 80% 29.96 in 0.5 mi West 20.7 mph - N/A Snow Light Snow
7:16 AM 19.4 °F 4.1 °F 14.0 °F 80% 29.96 in 0.2 mi West 18.4 mph - N/A Snow Snow
7:36 AM 19.4 °F 4.1 °F 14.0 °F 80% 29.97 in 0.8 mi West 18.4 mph - N/A Snow Light Snow
7:56 AM 19.4 °F 4.1 °F 14.0 °F 80% 29.97 in 5.0 mi West 18.4 mph - N/A Snow Light Snow
8:16 AM 19.4 °F 4.5 °F 14.0 °F 80% 29.97 in 10.0 mi West 17.3 mph 24.2 mph N/A Snow Light Snow
8:36 AM 21.2 °F 7.8 °F 14.0 °F 74% 29.98 in 7.0 mi West 15.0 mph - N/A   Overcast
8:56 AM 21.2 °F 8.9 °F 15.8 °F 80% 29.99 in 3.0 mi West 12.7 mph 19.6 mph N/A   Haze
9:16 AM 23.0 °F 8.3 °F 17.6 °F 80% 29.99 in 10.0 mi West 19.6 mph - N/A   Overcast
9:36 AM 23.0 °F 10.1 °F 17.6 °F 80% 29.99 in 10.0 mi West 15.0 mph - N/A   Mostly Cloudy
9:56 AM 23.0 °F 10.1 °F 17.6 °F 80% 29.99 in 10.0 mi West 15.0 mph - N/A   Mostly Cloudy
10:16 AM 24.8 °F 11.5 °F 19.4 °F 80% 30.00 in 10.0 mi West 17.3 mph - N/A   Mostly Cloudy
10:36 AM 24.8 °F 11.9 °F 19.4 °F 80% 30.00 in 10.0 mi West 16.1 mph 21.9 mph N/A   Scattered Clouds
10:56 AM 26.6 °F 12.7 °F 17.6 °F 69% 30.01 in 10.0 mi West 20.7 mph - N/A   Scattered Clouds
11:16 AM 28.4 °F 16.2 °F 14.0 °F 55% 30.01 in 10.0 mi West 17.3 mph 24.2 mph N/A   Scattered Clouds
11:36 AM 30.2 °F 18.1 °F 12.2 °F 47% 30.01 in 10.0 mi West 18.4 mph 25.3 mph N/A   Scattered Clouds
11:56 AM 32.0 °F 23.0 °F 10.4 °F 41% 30.02 in 10.0 mi West 11.5 mph 25.3 mph N/A   Mostly Cloudy
12:16 PM 30.2 °F 20.8 °F 8.6 °F 40% 30.02 in 10.0 mi West 11.5 mph 24.2 mph N/A   Overcast
12:36 PM 32.0 °F 20.8 °F 3.2 °F 30% 30.01 in 10.0 mi SW 17.3 mph 23.0 mph N/A   Overcast
12:56 PM 32.0 °F 20.8 °F 5.0 °F 32% 30.01 in 10.0 mi WSW 17.3 mph 24.2 mph N/A   Mostly Cloudy
1:16 PM 32.0 °F 20.8 °F 6.8 °F 35% 30.02 in 7.0 mi WSW 17.3 mph 25.3 mph N/A   Mostly Cloudy
1:36 PM 33.8 °F 22.5 °F 5.0 °F 30% 30.01 in 10.0 mi WSW 19.6 mph 26.5 mph N/A   Overcast
1:56 PM 32.0 °F 19.8 °F 3.2 °F 30% 30.01 in 10.0 mi WSW 20.7 mph 28.8 mph N/A   Mostly Cloudy
2:16 PM 32.0 °F 19.2 °F 3.2 °F 30% 30.01 in 5.0 mi WSW 23.0 mph 29.9 mph N/A   Haze
2:36 PM 33.8 °F 24.8 °F 5.0 °F 30% 30.02 in 2.5 mi WSW 12.7 mph 32.2 mph N/A Snow Light Snow
2:56 PM 33.8 °F 21.0 °F 5.0 °F 30% 30.01 in 10.0 mi West 25.3 mph - N/A   Scattered Clouds
3:16 PM 33.8 °F 21.6 °F 6.8 °F 32% 30.01 in 10.0 mi West 23.0 mph 31.1 mph N/A   Scattered Clouds
3:36 PM 33.8 °F 23.9 °F 6.8 °F 32% 30.01 in 10.0 mi West 15.0 mph 33.4 mph N/A   Scattered Clouds
3:56 PM 33.8 °F 21.6 °F 5.0 °F 30% 30.00 in 10.0 mi WNW 23.0 mph 32.2 mph N/A   Scattered Clouds
4:16 PM 33.8 °F 22.8 °F 5.0 °F 30% 30.01 in 10.0 mi West 18.4 mph 29.9 mph N/A   Mostly Cloudy
4:36 PM 33.8 °F 22.5 °F 5.0 °F 30% 30.01 in 10.0 mi West 19.6 mph 31.1 mph N/A   Scattered Clouds
4:56 PM 32.0 °F 20.8 °F 5.0 °F 32% 30.02 in 10.0 mi WNW 17.3 mph 26.5 mph N/A   Scattered Clouds
5:16 PM 32.0 °F 19.8 °F 3.2 °F 30% 30.02 in 10.0 mi West 20.7 mph 28.8 mph N/A   Scattered Clouds
5:36 PM 32.0 °F 20.1 °F 6.8 °F 35% 30.04 in 10.0 mi West 19.6 mph 24.2 mph N/A   Mostly Cloudy
5:56 PM 30.2 °F 17.4 °F 5.0 °F 34% 30.04 in 10.0 mi West 20.7 mph 29.9 mph N/A   Overcast
6:16 PM 30.2 °F 18.9 °F 6.8 °F 37% 30.05 in 10.0 mi West 16.1 mph 25.3 mph N/A   Overcast
6:36 PM 28.4 °F 15.8 °F 8.6 °F 43% 30.05 in 10.0 mi West 18.4 mph - N/A   Overcast
6:56 PM 28.4 °F 15.8 °F 10.4 °F 47% 30.05 in 10.0 mi West 18.4 mph 31.1 mph N/A   Overcast
7:16 PM 28.4 °F 15.4 °F 12.2 °F 51% 30.05 in 10.0 mi West 19.6 mph 25.3 mph N/A   Overcast
7:36 PM 28.4 °F - 12.2 °F 51% 30.06 in 10.0 mi North - - N/A   Overcast
7:56 PM 28.4 °F 15.1 °F 10.4 °F 47% 30.06 in 10.0 mi West 20.7 mph - N/A   Overcast
8:16 PM 28.4 °F 16.6 °F 10.4 °F 47% 30.07 in 10.0 mi West 16.1 mph - N/A   Overcast
8:36 PM 28.4 °F 18.0 °F 10.4 °F 47% 30.08 in 10.0 mi West 12.7 mph - N/A   Overcast
8:56 PM 26.6 °F 20.0 °F 10.4 °F 51% 30.09 in 10.0 mi WSW 5.8 mph 17.3 mph N/A   Scattered Clouds
9:16 PM 26.6 °F 22.6 °F 10.4 °F 51% 30.10 in 10.0 mi NW 3.5 mph - N/A   Clear
9:36 PM 24.8 °F - 10.4 °F 54% 30.10 in 10.0 mi Calm Calm - N/A   Clear
9:56 PM 26.6 °F 22.6 °F 10.4 °F 51% 30.10 in 10.0 mi SSW 3.5 mph - N/A   Scattered Clouds
10:16 PM 26.6 °F 19.1 °F 10.4 °F 51% 30.10 in 10.0 mi South 6.9 mph - N/A   Mostly Cloudy
10:36 PM 24.8 °F 19.1 °F 8.6 °F 50% 30.10 in 10.0 mi South 4.6 mph - N/A   Overcast
10:56 PM 26.6 °F - 10.4 °F 51% 30.10 in 10.0 mi Calm Calm - N/A   Overcast
11:16 PM 24.8 °F 16.9 °F 10.4 °F 54% 30.10 in 10.0 mi West 6.9 mph - N/A   Overcast
11:36 PM 23.0 °F 17.0 °F 10.4 °F 59% 30.10 in 10.0 mi WSW 4.6 mph - N/A   Overcast
11:56 PM 24.8 °F 19.1 °F 10.4 °F 54% 30.12 in 10.0 mi WSW 4.6 mph - N/A   Overcast